EDT,Max TemperatureF,Mean TemperatureF,Min TemperatureF,Max Dew PointF,MeanDew PointF,Min DewpointF,Max Humidity, Mean Humidity, Min Humidity, Max Sea Level PressureIn, Mean Sea Level PressureIn, Min Sea Level PressureIn, Max VisibilityMiles, Mean VisibilityMiles, Min VisibilityMiles, Max Wind SpeedMPH, Mean Wind SpeedMPH, Max Gust SpeedMPH,PrecipitationIn, CloudCover, Events, WindDirDegrees
2013-4-1,73,62,51,63,58,52,100,86,53,29.94,29.91,29.86,10,10,7,16,6,23,0.00,4,Rain-Thunderstorm,249
2013-4-2,60,53,46,54,44,37,100,70,42,30.17,30.08,29.94,10,10,10,14,6,20,0.00,0,,61
2013-4-3,62,52,42,54,44,37,100,77,39,30.26,30.18,30.09,10,10,5,14,4,17,0.00,1,Rain,52
2013-4-4,59,54,50,59,50,39,100,89,58,30.27,30.06,29.84,10,8,2,22,11,32,0.00,8,Rain,47
2013-4-5,57,50,42,52,46,43,100,94,72,30.05,29.94,29.83,10,9,1,15,8,21,0.00,7,Rain-Thunderstorm,328
2013-4-6,66,52,37,52,45,37,100,79,43,30.27,30.17,30.04,10,10,3,16,4,21,0.00,0,,79
2013-4-7,69,60,50,59,54,50,100,86,52,30.28,30.22,30.17,10,9,5,14,6,,0.00,1,,103
2013-4-8,78,63,48,63,56,48,100,80,42,30.22,30.17,30.14,10,8,0,15,3,20,0.00,1,Fog,180
2013-4-9,80,68,55,68,61,55,100,80,44,30.25,30.19,30.15,10,8,0,12,5,16,0.00,2,Fog,198
2013-4-10,80,68,55,66,61,55,100,81,51,30.19,30.13,30.06,10,9,0,15,7,21,0.00,1,Fog,202
2013-4-11,80,68,55,72,65,55,100,90,65,30.05,29.98,29.89,10,9,0,21,5,26,0.00,5,Fog,185
2013-4-12,80,73,66,72,70,66,100,95,74,29.89,29.81,29.75,10,8,2,20,12,31,0.00,6,Rain-Thunderstorm,201
2013-4-13,73,63,53,66,53,46,100,75,41,30.05,29.95,29.83,10,10,7,14,6,17,0.00,0,,14
2013-4-14,71,60,48,64,58,48,100,91,69,30.11,30.07,29.99,10,8,0,14,2,18,0.00,3,Fog-Rain,97
2013-4-15,73,66,60,64,63,61,100,90,69,30.18,30.05,29.90,10,8,5,25,9,40,0.00,8,Rain,79
2013-4-16,77,66,55,64,61,55,100,86,61,30.27,30.23,30.18,10,9,5,10,3,17,0.00,1,,80
2013-4-17,78,66,55,68,62,55,100,85,57,30.26,30.21,30.16,10,8,0,14,2,16,0.00,1,Fog,124
2013-4-18,78,68,59,70,64,59,100,88,61,30.19,30.13,30.06,10,10,2,15,4,20,0.00,3,,113
2013-4-19,78,72,66,72,70,66,100,92,74,30.06,29.97,29.89,10,10,3,25,9,34,0.00,5,Rain-Thunderstorm,188
2013-4-20,68,56,44,68,50,43,100,84,55,30.26,30.11,29.93,10,10,10,15,8,22,0.00,3,Rain,321
2013-4-21,64,52,41,52,47,41,100,73,56,30.38,30.33,30.26,10,10,10,24,10,36,0.00,4,,50
2013-4-22,68,57,46,52,45,36,87,68,52,30.35,30.24,30.16,10,10,10,18,13,26,0.00,3,,18
2013-4-23,68,59,50,55,52,50,100,86,60,30.23,30.18,30.16,10,10,7,14,9,21,0.00,6,,18
2013-4-24,77,60,44,63,54,45,100,80,47,30.21,30.15,30.09,10,9,2,15,3,22,0.00,2,,195
2013-4-25,77,68,60,64,63,61,100,91,61,30.26,30.17,30.10,10,9,2,13,6,,0.00,5,Rain-Thunderstorm,176
2013-4-26,69,60,51,61,52,41,100,78,35,30.41,30.34,30.25,10,8,2,15,6,22,0.00,1,,54
2013-4-27,71,61,51,61,54,48,100,78,43,30.36,30.32,30.27,10,10,10,12,3,,0.00,3,,69
2013-4-28,71,63,55,64,62,55,100,87,73,30.26,30.17,30.08,10,10,10,16,6,21,0.00,5,,116
2013-4-29,71,66,62,68,64,61,100,97,78,30.09,30.03,29.99,10,9,3,13,7,18,0.00,7,Rain-Thunderstorm,140
2013-4-30,71,65,59,68,63,59,100,92,64,30.11,30.04,29.98,10,8,1,14,4,20,0.00,4,,55